Time;durP1;ratioP1;P1;durP2;ratioP2;P2;SDS_P1;SDS_P2;PMS_P1;PMS_P2;Temp;Humidity;BMP_temperature;BMP_pressure;BME280_temperature;BME280_humidity;BME280_pressure;Samples;Min_cycle;Max_cycle;Signal;HPM_P1;HPM_P2
2021/09/27 00:01:32;;;;;;;88.22;33.63;;;;;;;21.07;63.07;95672.59;4971055;28;20031;-65
2021/09/27 00:03:58;;;;;;;89.35;33.90;;;;;;;21.13;63.29;95676.56;4970612;28;20034;-66
2021/09/27 00:06:23;;;;;;;106.95;36.40;;;;;;;21.44;63.50;95661.31;4970862;28;20047;-66
2021/09/27 00:08:48;;;;;;;91.88;33.90;;;;;;;21.09;63.42;95667.63;4969114;28;20489;-65
2021/09/27 00:11:20;;;;;;;109.75;37.60;;;;;;;21.42;62.89;95658.97;4972847;28;20027;-66
2021/09/27 00:13:48;;;;;;;115.90;38.30;;;;;;;21.75;63.12;95673.81;4969119;28;20035;-66
2021/09/27 00:16:14;;;;;;;129.88;40.63;;;;;;;22.28;62.98;95671.16;4985370;28;20118;-64
2021/09/27 00:18:40;;;;;;;128.13;38.78;;;;;;;22.56;62.52;95681.59;4968942;28;20470;-65
2021/09/27 00:21:09;;;;;;;110.40;37.38;;;;;;;22.76;62.40;95674.88;4970551;28;20046;-65
2021/09/27 00:23:36;;;;;;;134.48;40.55;;;;;;;22.90;62.25;95671.59;4969040;28;20047;-66
2021/09/27 00:26:03;;;;;;;116.63;38.42;;;;;;;23.02;62.34;95663.19;4972651;28;20114;-65
2021/09/27 00:28:29;;;;;;;103.35;36.72;;;;;;;23.05;61.72;95661.69;4968942;28;20035;-65
2021/09/27 00:30:55;;;;;;;98.72;34.60;;;;;;;23.15;61.54;95671.88;4970018;28;20394;-65
2021/09/27 00:33:22;;;;;;;108.95;37.83;;;;;;;23.14;61.64;95656.75;4969837;28;20043;-66
2021/09/27 00:35:49;;;;;;;101.63;35.35;;;;;;;23.07;61.21;95660.13;4970280;28;20035;-65
2021/09/27 00:38:16;;;;;;;105.00;35.70;;;;;;;23.08;61.20;95655.50;4972864;28;20105;-65
2021/09/27 00:40:48;;;;;;;114.03;36.97;;;;;;;22.78;60.02;95666.38;4970871;28;20035;-66
2021/09/27 00:43:13;;;;;;;81.25;31.88;;;;;;;22.82;61.64;95662.53;4969954;28;20045;-66
2021/09/27 00:45:47;;;;;;;92.55;34.67;;;;;;;22.76;61.59;95655.13;4970272;28;20255;-65
2021/09/27 00:48:13;;;;;;;119.97;40.17;;;;;;;22.89;61.63;95647.56;4970612;28;20532;-67
2021/09/27 00:50:42;;;;;;;93.20;35.00;;;;;;;22.84;61.41;95649.41;4967826;28;20039;-67
2021/09/27 00:53:18;;;;;;;111.15;37.47;;;;;;;22.83;61.53;95645.13;4972132;28;20496;-65
2021/09/27 00:55:44;;;;;;;113.13;38.03;;;;;;;23.00;61.51;95656.59;4970489;28;20658;-66
2021/09/27 00:58:10;;;;;;;125.13;40.75;;;;;;;22.98;61.81;95642.59;4984907;28;20047;-66
2021/09/27 01:00:36;;;;;;;91.78;33.95;;;;;;;22.89;61.48;95637.47;4969636;28;20117;-66
2021/09/27 01:03:01;;;;;;;107.22;37.00;;;;;;;23.01;61.38;95650.00;4968392;28;20129;-66
2021/09/27 01:05:27;;;;;;;105.28;37.25;;;;;;;23.06;61.48;95655.09;4984612;28;20029;-66
2021/09/27 01:08:02;;;;;;;107.38;37.03;;;;;;;23.03;61.37;95659.34;4971919;28;20101;-66
2021/09/27 01:10:46;;;;;;;93.68;35.47;;;;;;;22.57;59.58;95659.56;4969454;28;20077;-66
2021/09/27 01:13:26;;;;;;;98.38;35.50;;;;;;;22.69;61.08;95649.63;4969651;28;20452;-66
2021/09/27 01:16:19;;;;;;;90.13;33.92;;;;;;;22.65;60.64;95652.28;4963613;28;20043;-67
2021/09/27 01:19:06;;;;;;;147.02;41.83;;;;;;;22.73;61.78;95645.03;4969622;28;20050;-66
2021/09/27 01:21:53;;;;;;;112.45;37.25;;;;;;;22.12;60.00;95644.22;4950685;28;20083;-66
2021/09/27 01:24:50;;;;;;;94.78;36.28;;;;;;;22.47;61.35;95664.81;4950139;28;20047;-66
2021/09/27 01:27:52;;;;;;;156.45;40.40;;;;;;;22.58;60.95;95654.91;4949291;28;20047;-66
2021/09/27 01:30:41;;;;;;;107.20;36.60;;;;;;;22.67;61.79;95655.38;4965448;28;20051;-66
2021/09/27 01:33:14;;;;;;;113.53;37.30;;;;;;;22.76;61.34;95641.56;4983903;28;20065;-66
2021/09/27 01:35:55;;;;;;;150.05;42.03;;;;;;;22.69;61.28;95601.59;4969115;28;20027;-67
2021/09/27 01:38:46;;;;;;;125.05;39.08;;;;;;;23.09;61.21;95638.09;4969278;28;20057;-68
2021/09/27 01:41:21;;;;;;;179.07;46.67;;;;;;;22.88;61.12;95603.38;4970965;28;20418;-67
2021/09/27 01:43:49;;;;;;;149.77;42.13;;;;;;;23.21;61.15;95637.03;4969488;28;20043;-67
2021/09/27 01:46:39;;;;;;;135.88;41.55;;;;;;;23.21;61.13;95634.31;4969357;28;20038;-66
2021/09/27 01:49:11;;;;;;;130.13;40.75;;;;;;;23.15;60.88;95617.59;4968720;28;20035;-66
2021/09/27 01:51:53;;;;;;;157.85;42.90;;;;;;;23.24;61.03;95625.44;4948615;28;20031;-67
2021/09/27 01:54:40;;;;;;;128.15;39.97;;;;;;;23.34;60.79;95635.63;4949024;28;20151;-67
2021/09/27 01:57:30;;;;;;;128.38;38.72;;;;;;;23.35;60.63;95627.09;4949855;28;20401;-66
2021/09/27 02:00:08;;;;;;;193.45;47.17;;;;;;;23.35;60.94;95626.31;4960604;28;20034;-67
2021/09/27 02:02:59;;;;;;;135.15;40.78;;;;;;;23.38;60.72;95627.47;4968160;28;20053;-67
2021/09/27 02:05:30;;;;;;;192.13;45.97;;;;;;;23.35;60.84;95627.09;4968989;28;20477;-65
2021/09/27 02:08:06;;;;;;;141.38;40.38;;;;;;;23.33;60.36;95620.47;4970818;28;20034;-66
2021/09/27 02:10:39;;;;;;;125.65;40.13;;;;;;;23.39;60.76;95632.56;4967320;28;20067;-67
2021/09/27 02:13:17;;;;;;;107.15;38.58;;;;;;;23.39;60.47;95635.28;4967685;28;20039;-66
2021/09/27 02:15:58;;;;;;;138.93;41.22;;;;;;;23.35;60.35;95623.59;4968104;28;20077;-66
2021/09/27 02:18:40;;;;;;;132.70;38.72;;;;;;;23.31;60.38;95620.84;4968488;28;20181;-66
2021/09/27 02:21:14;;;;;;;126.65;39.58;;;;;;;23.32;60.36;95621.63;4967310;28;20023;-65
2021/09/27 02:23:50;;;;;;;110.28;38.05;;;;;;;23.26;59.83;95623.91;4968548;28;20501;-66
2021/09/27 02:26:16;;;;;;;131.13;40.17;;;;;;;23.13;60.57;95609.03;4969482;28;20478;-66
2021/09/27 02:28:42;;;;;;;107.35;37.45;;;;;;;23.15;60.44;95628.44;4966258;28;20126;-65
2021/09/27 02:31:14;;;;;;;105.85;36.35;;;;;;;23.03;60.50;95610.50;4968262;28;20042;-65
2021/09/27 02:34:01;;;;;;;135.55;40.45;;;;;;;23.11;60.40;95624.13;4968331;28;20035;-65
2021/09/27 02:36:32;;;;;;;116.90;37.38;;;;;;;23.07;60.47;95615.94;4968974;28;20050;-66
2021/09/27 02:39:03;;;;;;;107.80;37.47;;;;;;;23.09;60.31;95627.22;4968916;28;20613;-66
2021/09/27 02:41:34;;;;;;;122.03;37.30;;;;;;;22.86;60.45;95589.34;4969038;28;20503;-66
2021/09/27 02:43:59;;;;;;;140.30;41.38;;;;;;;22.93;60.52;95597.63;4970261;28;20118;-66
2021/09/27 02:46:25;;;;;;;119.78;37.65;;;;;;;23.01;60.19;95620.16;4968231;28;20130;-66
2021/09/27 02:48:57;;;;;;;151.57;42.45;;;;;;;22.99;60.35;95612.41;4967879;28;20031;-66
2021/09/27 02:51:24;;;;;;;149.43;40.67;;;;;;;22.95;60.61;95617.00;4968657;28;20086;-66
2021/09/27 02:53:50;;;;;;;124.57;39.92;;;;;;;22.91;60.27;95618.13;4968209;28;20037;-66
2021/09/27 02:56:27;;;;;;;107.05;35.80;;;;;;;22.86;60.53;95621.13;4967335;28;20113;-66
2021/09/27 02:59:39;;;;;;;127.18;38.58;;;;;;;22.79;59.97;95625.31;4969663;28;20038;-66
2021/09/27 03:02:14;;;;;;;160.40;43.58;;;;;;;22.73;60.50;95617.91;4948745;28;20046;-66
2021/09/27 03:04:52;;;;;;;142.73;40.78;;;;;;;22.64;60.16;95612.75;4968049;28;20582;-68
2021/09/27 03:07:29;;;;;;;135.18;38.25;;;;;;;22.51;60.27;95604.06;4968395;28;20031;-68
2021/09/27 03:09:57;;;;;;;142.07;40.22;;;;;;;22.54;60.01;95616.91;4968099;28;20049;-67
2021/09/27 03:12:48;;;;;;;135.15;38.45;;;;;;;22.48;60.10;95609.47;4968346;28;20046;-66
2021/09/27 03:15:22;;;;;;;136.57;38.50;;;;;;;22.42;59.79;95603.59;4971027;28;20516;-65
2021/09/27 03:18:27;;;;;;;156.02;41.38;;;;;;;22.39;60.20;95603.53;4986795;28;20571;-66
2021/09/27 03:21:43;;;;;;;135.50;38.03;;;;;;;22.27;60.26;95608.06;4966274;28;20081;-66
2021/09/27 03:24:15;;;;;;;165.50;41.47;;;;;;;22.20;60.36;95609.88;4985549;28;20404;-66
2021/09/27 03:27:01;;;;;;;165.02;41.78;;;;;;;22.20;60.04;95607.94;4971891;28;20058;-66
2021/09/27 03:29:30;;;;;;;133.57;38.83;;;;;;;22.19;60.08;95611.81;4970705;28;20065;-66
2021/09/27 03:32:21;;;;;;;162.77;41.25;;;;;;;22.12;60.20;95606.31;4988208;28;20018;-66
2021/09/27 03:34:52;;;;;;;132.45;37.83;;;;;;;22.11;60.39;95610.16;4969921;28;20050;-66
2021/09/27 03:37:50;;;;;;;156.77;40.28;;;;;;;22.14;60.17;95614.84;4971578;28;20051;-66
2021/09/27 03:40:24;;;;;;;108.45;36.28;;;;;;;22.05;60.10;95609.63;4970799;28;20039;-66
2021/09/27 03:43:09;;;;;;;126.70;38.30;;;;;;;22.14;60.31;95614.84;4971225;28;20047;-67
2021/09/27 03:45:43;;;;;;;142.20;37.22;;;;;;;22.19;60.01;95606.38;4969575;28;20043;-67
2021/09/27 03:48:16;;;;;;;140.10;38.28;;;;;;;22.15;59.90;95608.25;4986024;28;20042;-66
2021/09/27 03:50:53;;;;;;;147.07;38.88;;;;;;;22.19;60.12;95611.81;4985502;28;20046;-66
2021/09/27 03:53:41;;;;;;;129.82;38.50;;;;;;;22.20;60.00;95616.06;4970816;28;20046;-66
2021/09/27 03:56:37;;;;;;;170.25;42.75;;;;;;;22.18;59.86;95615.66;4973135;28;20041;-66
2021/09/27 03:59:15;;;;;;;137.15;37.13;;;;;;;22.12;59.90;95610.94;4970073;28;20130;-67
2021/09/27 04:01:52;;;;;;;123.38;35.22;;;;;;;22.14;60.31;95609.41;4963190;28;20444;-67
2021/09/27 04:04:51;;;;;;;134.88;38.08;;;;;;;22.16;60.08;95601.72;4970556;28;20394;-66
2021/09/27 04:07:23;;;;;;;137.82;37.75;;;;;;;22.25;59.88;95606.84;4971056;28;20043;-65
2021/09/27 04:10:26;;;;;;;99.90;33.22;;;;;;;22.34;60.00;95617.41;4985907;28;20066;-67
2021/09/27 04:12:55;;;;;;;130.73;36.28;;;;;;;22.35;59.92;95619.75;4985985;28;20066;-66
2021/09/27 04:15:46;;;;;;;93.47;31.58;;;;;;;22.30;60.16;95612.72;4985876;28;20050;-66
2021/09/27 04:18:11;;;;;;;84.63;30.40;;;;;;;22.27;59.93;95613.47;4970943;28;20049;-67
2021/09/27 04:20:59;;;;;;;95.22;30.70;;;;;;;22.19;59.66;95602.91;4970156;28;20046;-66
2021/09/27 04:23:39;;;;;;;103.00;31.08;;;;;;;22.19;60.19;95619.16;4970124;28;20029;-66
2021/09/27 04:26:28;;;;;;;130.77;34.88;;;;;;;22.22;60.02;95616.50;4972571;28;20466;-66
2021/09/27 04:29:24;;;;;;;83.10;29.85;;;;;;;22.21;60.01;95617.63;4970620;28;20051;-65
2021/09/27 04:32:32;;;;;;;118.55;33.60;;;;;;;22.20;60.15;95597.09;4980247;28;20145;-66
2021/09/27 04:35:15;;;;;;;89.03;29.38;;;;;;;22.22;60.02;95605.66;4973654;28;20070;-66
2021/09/27 04:37:44;;;;;;;119.53;33.50;;;;;;;22.24;60.30;95603.34;4951500;28;20038;-66
2021/09/27 04:40:11;;;;;;;96.18;31.15;;;;;;;22.34;60.22;95606.56;4950543;28;20130;-66
2021/09/27 04:43:03;;;;;;;90.93;29.40;;;;;;;22.42;59.71;95605.50;4950843;28;20043;-64
2021/09/27 04:45:44;;;;;;;119.80;33.50;;;;;;;22.36;59.78;95598.84;4960794;28;20716;-67
2021/09/27 04:48:33;;;;;;;98.95;30.65;;;;;;;22.34;59.40;95606.56;4968640;28;20074;-66
2021/09/27 04:51:13;;;;;;;87.22;30.77;;;;;;;22.14;59.50;95604.00;4969952;28;20146;-67
2021/09/27 04:54:02;;;;;;;81.68;28.40;;;;;;;22.04;59.73;95604.59;4968585;28;20089;-67
2021/09/27 04:56:42;;;;;;;118.32;33.05;;;;;;;21.91;59.67;95608.69;4970204;28;20030;-66
2021/09/27 04:59:33;;;;;;;79.13;27.98;;;;;;;21.81;59.77;95599.25;4971500;28;20023;-66
2021/09/27 05:02:23;;;;;;;92.72;29.67;;;;;;;21.74;59.75;95607.25;4980743;28;20050;-66
2021/09/27 05:04:50;;;;;;;95.25;30.42;;;;;;;;;;4979184;28;20540;-66
2021/09/27 05:07:21;;;;;;;95.35;30.48;;;;;;;21.58;59.89;95606.63;4969715;28;20067;-67
2021/09/27 05:09:55;;;;;;;120.45;33.20;;;;;;;21.61;59.90;95608.63;4969409;28;20400;-67
2021/09/27 05:12:32;;;;;;;90.93;28.80;;;;;;;21.61;60.34;95614.81;4969894;28;20078;-66
2021/09/27 05:15:16;;;;;;;115.93;33.83;;;;;;;21.76;60.24;95619.31;4968761;28;20112;-68
2021/09/27 05:18:24;;;;;;;107.90;32.60;;;;;;;21.90;59.93;95615.22;4963278;28;20042;-68
2021/09/27 05:20:55;;;;;;;82.63;29.40;;;;;;;21.95;60.02;95618.41;4962226;28;20042;-69
2021/09/27 05:23:35;;;;;;;88.03;31.58;;;;;;;22.01;59.68;95616.19;4983662;28;20034;-68
2021/09/27 05:26:07;;;;;;;89.30;30.52;;;;;;;22.00;59.72;95618.09;4986421;28;20034;-64
2021/09/27 05:28:38;;;;;;;75.82;28.15;;;;;;;21.91;59.62;95617.59;4969281;28;20030;-77
2021/09/27 05:31:19;;;;;;;88.90;29.45;;;;;;;21.93;59.83;95614.50;4964665;28;20595;-68
2021/09/27 05:33:56;;;;;;;88.80;29.35;;;;;;;21.92;59.31;95623.78;4968422;28;20207;-68
2021/09/27 05:36:34;;;;;;;106.07;31.48;;;;;;;21.91;59.51;95624.94;4968615;28;20512;-69
2021/09/27 05:39:37;;;;;;;91.53;30.40;;;;;;;21.85;59.65;95619.03;4969086;28;20085;-77
2021/09/27 05:42:09;;;;;;;84.00;28.98;;;;;;;21.83;60.00;95628.66;4969211;28;20046;-66
2021/09/27 05:44:40;;;;;;;91.68;30.05;;;;;;;21.90;60.08;95634.19;4968455;28;20031;-69
2021/09/27 05:47:27;;;;;;;89.53;29.20;;;;;;;22.03;60.05;95630.13;4969472;28;20484;-70
2021/09/27 05:50:14;;;;;;;86.70;29.48;;;;;;;22.23;59.92;95620.00;4983840;28;20058;-67
2021/09/27 05:52:40;;;;;;;75.00;27.98;;;;;;;22.40;59.72;95624.06;4947679;28;20097;-69
2021/09/27 05:55:44;;;;;;;76.25;28.13;;;;;;;22.45;59.55;95626.47;4949564;28;20393;-63
2021/09/27 05:58:28;;;;;;;55.55;23.38;;;;;;;22.54;59.09;95622.31;4949717;28;20043;-63
2021/09/27 06:01:09;;;;;;;50.78;21.70;;;;;;;22.66;59.48;95634.84;4959943;28;20061;-63
2021/09/27 06:03:54;;;;;;;50.70;22.35;;;;;;;22.73;59.66;95634.94;4968496;28;20034;-63
2021/09/27 06:06:30;;;;;;;44.63;18.67;;;;;;;22.72;59.21;95619.81;4968627;28;20050;-64
2021/09/27 06:09:26;;;;;;;47.67;21.60;;;;;;;22.88;58.98;95637.81;4968614;28;20527;-63
2021/09/27 06:11:54;;;;;;;40.80;18.88;;;;;;;22.94;59.12;95628.22;4968851;28;20082;-67
2021/09/27 06:14:20;;;;;;;59.58;23.60;;;;;;;22.83;58.82;95579.28;4980113;28;20058;-73
2021/09/27 06:17:25;;;;;;;44.03;22.23;;;;;;;23.28;58.55;95634.38;4969992;28;20270;-70
2021/09/27 06:20:05;;;;;;;39.58;18.65;;;;;;;23.38;58.78;95633.69;4963117;28;20721;-65
2021/09/27 06:22:51;;;;;;;45.53;20.75;;;;;;;23.63;58.44;95633.94;4948518;28;20074;-65
2021/09/27 06:25:45;;;;;;;57.15;24.42;;;;;;;23.88;58.48;95638.78;4948759;28;20039;-74
2021/09/27 06:28:32;;;;;;;30.90;16.75;;;;;;;24.22;58.11;95637.47;4949794;28;20039;-67
2021/09/27 06:31:09;;;;;;;41.85;20.15;;;;;;;24.27;57.68;95634.38;4959171;28;20051;-68
2021/09/27 06:33:50;;;;;;;25.00;16.45;;;;;;;24.48;57.85;95625.59;4966562;28;20393;-68
2021/09/27 06:36:21;;;;;;;21.90;15.67;;;;;;;24.46;57.13;95619.72;4968483;28;20565;-68
2021/09/27 06:38:53;;;;;;;31.60;17.73;;;;;;;24.74;57.06;95632.69;4968432;28;20341;-70
2021/09/27 06:41:21;;;;;;;22.85;15.18;;;;;;;24.80;56.93;95625.69;4983377;28;20030;-69
2021/09/27 06:43:46;;;;;;;22.35;15.20;;;;;;;24.97;56.93;95628.84;4970341;28;20077;-69
2021/09/27 06:46:13;;;;;;;18.73;13.32;;;;;;;25.04;56.61;95623.44;4967895;28;20047;-70
2021/09/27 06:48:39;;;;;;;19.52;13.50;;;;;;;25.09;57.01;95626.59;4970911;28;20123;-70
2021/09/27 06:51:04;;;;;;;19.05;14.55;;;;;;;25.18;56.66;95620.00;4972270;28;20548;-70
2021/09/27 06:53:30;;;;;;;20.55;15.02;;;;;;;25.28;56.61;95628.16;4986580;28;20213;-69
2021/09/27 06:55:59;;;;;;;19.30;13.90;;;;;;;25.26;56.06;95619.63;4974150;28;20121;-67
2021/09/27 06:58:25;;;;;;;13.98;11.57;;;;;;;25.29;56.49;95605.25;4987567;28;20046;-68
2021/09/27 07:00:53;;;;;;;11.70;10.05;;;;;;;25.51;56.41;95624.31;4971315;28;20059;-68
2021/09/27 07:03:19;;;;;;;11.68;10.50;;;;;;;25.55;55.72;95614.22;4971725;28;20234;-68
2021/09/27 07:05:45;;;;;;;11.77;10.52;;;;;;;25.64;55.80;95618.09;4972217;28;20045;-69
2021/09/27 07:08:10;;;;;;;9.60;8.70;;;;;;;25.62;55.33;95614.19;4974296;28;20404;-71
2021/09/27 07:10:35;;;;;;;10.02;9.20;;;;;;;25.84;55.73;95621.22;4971812;28;20090;-72
2021/09/27 07:13:01;;;;;;;10.63;8.32;;;;;;;25.81;55.76;95611.09;4969749;28;20034;-73
2021/09/27 07:15:26;;;;;;;7.88;7.18;;;;;;;25.82;55.69;95617.34;4971620;28;20042;-71
2021/09/27 07:17:52;;;;;;;9.18;8.27;;;;;;;25.85;55.65;95617.34;4971818;28;20038;-71
2021/09/27 07:20:21;;;;;;;8.35;7.65;;;;;;;25.78;55.58;95602.94;4971298;28;20023;-71
2021/09/27 07:22:47;;;;;;;7.35;6.85;;;;;;;25.84;55.83;95615.00;4972258;28;20041;-72
2021/09/27 07:25:14;;;;;;;9.40;8.60;;;;;;;25.65;55.51;95608.75;4971959;28;20039;-71
2021/09/27 07:27:40;;;;;;;8.95;8.25;;;;;;;25.76;55.74;95614.22;4971737;28;20130;-71
2021/09/27 07:30:08;;;;;;;9.15;8.38;;;;;;;25.73;56.23;95620.41;4970952;28;20125;-72
2021/09/27 07:32:34;;;;;;;7.85;7.15;;;;;;;25.60;56.42;95611.88;4971274;28;20019;-72
2021/09/27 07:35:00;;;;;;;8.38;7.68;;;;;;;25.50;56.39;95603.69;4971977;28;20049;-72
2021/09/27 07:37:25;;;;;;;7.72;6.97;;;;;;;25.42;56.42;95616.53;4971775;28;20485;-73
2021/09/27 07:39:50;;;;;;;7.63;6.95;;;;;;;25.24;56.78;95600.19;4971745;28;20035;-73
2021/09/27 07:42:17;;;;;;;8.60;7.90;;;;;;;25.11;56.84;95601.72;4971386;28;20074;-74
2021/09/27 07:44:42;;;;;;;8.25;7.57;;;;;;;25.06;57.01;95602.06;4971342;28;20035;-74
2021/09/27 07:47:08;;;;;;;7.72;7.13;;;;;;;24.93;57.18;95598.13;4972749;28;20067;-73
2021/09/27 07:49:33;;;;;;;8.23;7.43;;;;;;;24.83;57.42;95594.25;4971642;28;20119;-73
2021/09/27 07:51:59;;;;;;;7.25;6.57;;;;;;;24.95;57.31;95603.97;4972032;28;20121;-75
2021/09/27 07:54:25;;;;;;;8.13;7.53;;;;;;;24.98;57.29;95603.19;4971842;28;20133;-74
2021/09/27 07:56:51;;;;;;;8.40;7.78;;;;;;;24.95;57.38;95614.88;4971812;28;20485;-75
2021/09/27 07:59:17;;;;;;;8.68;7.93;;;;;;;24.87;57.13;95606.66;4970298;28;20026;-75
2021/09/27 08:01:42;;;;;;;7.88;7.28;;;;;;;24.80;57.15;95609.38;4971512;28;20035;-74
2021/09/27 08:04:09;;;;;;;8.02;7.30;;;;;;;24.82;56.85;95617.91;4970743;28;20554;-74
2021/09/27 08:06:38;;;;;;;8.57;7.75;;;;;;;24.77;57.20;95618.31;4971342;28;20508;-75
2021/09/27 08:09:04;;;;;;;8.77;7.85;;;;;;;24.81;57.25;95599.28;4971200;28;20042;-74
2021/09/27 08:11:30;;;;;;;8.65;7.95;;;;;;;24.89;57.51;95619.91;4970741;28;20034;-76
2021/09/27 08:13:56;;;;;;;8.48;7.18;;;;;;;24.09;53.69;95614.47;4973678;28;20019;-75
2021/09/27 08:16:22;;;;;;;11.52;8.68;;;;;;;24.16;56.45;95619.16;4969938;28;20058;-73
2021/09/27 08:18:47;;;;;;;8.25;7.45;;;;;;;24.32;57.27;95625.09;4970741;28;20519;-74
2021/09/27 08:21:16;;;;;;;8.38;7.68;;;;;;;23.68;55.84;95621.94;4970695;28;20409;-72
2021/09/27 08:23:42;;;;;;;8.07;7.30;;;;;;;23.75;57.23;95611.94;4970571;28;20034;-73
2021/09/27 08:26:08;;;;;;;8.40;7.47;;;;;;;24.34;57.26;95611.88;4987772;28;20473;-74
2021/09/27 08:28:36;;;;;;;8.23;7.63;;;;;;;23.97;55.94;95617.50;4970782;28;20035;-73
2021/09/27 08:31:10;;;;;;;9.05;8.25;;;;;;;22.35;56.81;95625.16;4968656;28;20070;-75
2021/09/27 08:33:37;;;;;;;8.32;7.63;;;;;;;22.35;58.38;95618.97;4961705;28;20034;-73
2021/09/27 08:36:05;;;;;;;8.05;7.35;;;;;;;22.55;56.95;95623.09;4970504;28;20054;-73
2021/09/27 08:38:37;;;;;;;7.57;7.07;;;;;;;23.78;57.90;95619.31;4970402;28;20377;-73
2021/09/27 08:41:14;;;;;;;9.90;8.98;;;;;;;22.71;56.77;95620.19;4972101;28;20018;-73
2021/09/27 08:43:48;;;;;;;8.73;7.85;;;;;;;23.22;57.08;95608.72;4970141;28;20062;-73
2021/09/27 08:46:23;;;;;;;8.20;7.60;;;;;;;23.21;58.86;95618.03;4969814;28;20142;-73
2021/09/27 08:48:52;;;;;;;8.70;7.97;;;;;;;23.62;57.91;95607.91;4969709;28;20084;-72
2021/09/27 08:51:17;;;;;;;8.73;7.80;;;;;;;24.52;57.79;95609.28;4984885;28;20043;-72
2021/09/27 08:53:48;;;;;;;10.73;8.73;;;;;;;24.96;57.23;95613.69;4969963;28;20113;-71
2021/09/27 08:56:38;;;;;;;8.90;8.15;;;;;;;25.09;56.29;95606.78;4972125;28;20027;-72
2021/09/27 08:59:18;;;;;;;9.52;8.57;;;;;;;25.02;56.16;95610.19;4970337;28;20520;-73
2021/09/27 09:02:10;;;;;;;8.52;7.72;;;;;;;25.14;55.17;95607.16;4970035;28;20067;-72
2021/09/27 09:05:14;;;;;;;10.13;8.50;;;;;;;25.35;55.57;95600.97;4990759;28;20042;-73
2021/09/27 09:08:00;;;;;;;9.13;8.30;;;;;;;25.30;51.28;95604.06;4968230;28;20039;-73
2021/09/27 09:10:44;;;;;;;9.07;8.25;;;;;;;25.63;55.28;95604.84;4967731;28;20038;-73
2021/09/27 09:13:17;;;;;;;8.52;7.93;;;;;;;25.56;51.48;95602.13;4969417;28;20038;-73
2021/09/27 09:15:47;;;;;;;8.18;7.47;;;;;;;25.67;55.02;95605.63;4967944;28;20042;-73
2021/09/27 09:18:18;;;;;;;8.32;7.57;;;;;;;23.76;53.08;95612.72;4968184;28;20122;-75
2021/09/27 09:20:46;;;;;;;9.83;8.40;;;;;;;24.04;52.52;95604.72;4969261;28;20145;-74
2021/09/27 09:23:19;;;;;;;9.07;8.35;;;;;;;22.81;53.96;95603.25;4971220;28;20341;-75
2021/09/27 09:25:45;;;;;;;9.15;8.35;;;;;;;22.74;54.82;95605.91;4970365;28;20571;-73
2021/09/27 09:28:11;;;;;;;7.88;7.22;;;;;;;22.41;53.04;95603.94;4968585;28;20050;-73
2021/09/27 09:30:42;;;;;;;8.38;7.78;;;;;;;22.63;53.06;95594.16;4969054;28;20034;-75
2021/09/27 09:33:08;;;;;;;9.10;8.18;;;;;;;23.17;55.59;95593.56;4969221;28;20102;-73
2021/09/27 09:35:34;;;;;;;9.13;8.35;;;;;;;24.03;53.25;95586.88;4969510;28;20026;-73
2021/09/27 09:38:11;;;;;;;9.85;8.20;;;;;;;23.93;52.61;95598.44;4970132;28;20034;-74
2021/09/27 09:40:39;;;;;;;9.25;8.48;;;;;;;22.95;54.34;95594.53;4969357;28;20726;-73
2021/09/27 09:43:35;;;;;;;8.88;8.18;;;;;;;23.20;53.22;95603.69;4969349;28;20122;-73
2021/09/27 09:46:30;;;;;;;9.02;7.97;;;;;;;24.24;53.75;95569.13;4969532;28;20118;-74
2021/09/27 09:48:59;;;;;;;8.70;8.02;;;;;;;24.16;50.58;95598.22;4963282;28;20550;-73
2021/09/27 09:51:49;;;;;;;10.40;8.32;;;;;;;24.98;52.74;95595.84;4984841;28;20042;-69
2021/09/27 09:54:21;;;;;;;8.55;7.75;;;;;;;24.51;49.36;95594.88;4984052;28;20046;-70
2021/09/27 09:57:15;;;;;;;7.97;7.20;;;;;;;24.36;49.36;95601.44;4969191;28;20076;-69
2021/09/27 09:59:52;;;;;;;8.07;7.18;;;;;;;24.70;50.81;95603.91;4968736;28;20113;-69
2021/09/27 10:02:20;;;;;;;8.13;7.60;;;;;;;25.04;48.40;95599.72;4968345;28;20393;-69
2021/09/27 10:05:07;;;;;;;7.82;7.22;;;;;;;25.85;51.43;95594.75;4970489;28;20098;-69
2021/09/27 10:07:51;;;;;;;8.55;7.95;;;;;;;26.61;52.84;95596.13;4961387;28;20065;-68
2021/09/27 10:10:39;;;;;;;8.13;7.53;;;;;;;27.25;50.98;95584.88;4968572;28;20510;-69
2021/09/27 10:13:23;;;;;;;7.35;6.75;;;;;;;27.56;49.01;95590.50;4968578;28;20038;-68
2021/09/27 10:15:49;;;;;;;7.93;7.10;;;;;;;27.90;49.32;95588.66;4967048;28;20125;-69
2021/09/27 10:18:34;;;;;;;8.38;7.78;;;;;;;27.93;49.92;95579.63;4967199;28;20121;-68
2021/09/27 10:21:18;;;;;;;8.10;7.30;;;;;;;27.03;44.58;95588.91;4968215;28;20058;-69
2021/09/27 10:23:58;;;;;;;8.20;7.50;;;;;;;25.80;44.81;95579.59;4968190;28;20488;-68
2021/09/27 10:26:36;;;;;;;7.40;6.90;;;;;;;25.36;46.20;95585.41;4968853;28;20062;-74
2021/09/27 10:29:17;;;;;;;6.97;6.47;;;;;;;24.06;47.63;95588.84;4970426;28;20543;-71
2021/09/27 10:31:53;;;;;;;7.97;7.35;;;;;;;24.27;47.06;95582.72;4967542;28;20142;-65
2021/09/27 10:34:21;;;;;;;8.25;7.63;;;;;;;24.96;46.37;95567.44;4966433;28;20049;-67
2021/09/27 10:36:56;;;;;;;6.90;6.40;;;;;;;24.49;50.00;95578.19;4968722;28;20042;-71
2021/09/27 10:39:24;;;;;;;6.90;6.45;;;;;;;25.58;45.87;95564.38;4967281;28;20045;-70
2021/09/27 10:41:58;;;;;;;7.13;6.65;;;;;;;24.72;45.29;95585.25;4967012;28;20047;-69
2021/09/27 10:44:32;;;;;;;8.00;7.40;;;;;;;24.98;45.07;95586.88;4968810;28;20023;-71
2021/09/27 10:47:10;;;;;;;8.25;7.57;;;;;;;25.62;44.36;95584.22;4985092;28;20027;-72
2021/09/27 10:49:41;;;;;;;8.77;8.18;;;;;;;27.00;49.31;95589.69;4968495;28;20033;-72
2021/09/27 10:52:16;;;;;;;8.68;8.07;;;;;;;27.10;41.25;95580.69;4968553;28;20445;-69
2021/09/27 10:54:45;;;;;;;7.70;7.20;;;;;;;27.58;47.34;95583.44;4967772;28;20043;-70
2021/09/27 10:57:16;;;;;;;7.63;6.97;;;;;;;27.19;40.43;95567.38;4967007;28;20039;-70
2021/09/27 10:59:46;;;;;;;;;;;;;;;28.03;44.76;95574.47;4968547;28;20493;-69
2021/09/27 11:02:41;;;;;;;7.40;6.80;;;;;;;28.44;41.95;95583.41;4984492;28;19922;-70
2021/09/27 11:05:25;;;;;;;7.28;6.72;;;;;;;26.77;40.94;95579.28;4968686;28;20069;-70
2021/09/27 11:07:55;;;;;;;7.53;6.82;;;;;;;25.96;42.86;95575.66;4983784;28;20099;-70
2021/09/27 11:10:27;;;;;;;7.47;6.85;;;;;;;26.62;43.53;95578.59;4967756;28;20039;-70
2021/09/27 11:12:55;;;;;;;7.20;6.53;;;;;;;26.86;41.22;95571.44;4966559;28;20051;-70
2021/09/27 11:15:39;;;;;;;7.43;6.93;;;;;;;26.73;42.30;95581.28;4968180;28;20062;-70
2021/09/27 11:18:31;;;;;;;5.93;5.53;;;;;;;27.84;41.17;95567.63;4967649;28;20050;-70
2021/09/27 11:21:34;;;;;;;6.53;5.78;;;;;;;28.25;43.29;95578.53;4963250;28;20515;-69
2021/09/27 11:24:12;;;;;;;7.22;6.07;;;;;;;28.12;36.76;95570.09;4948802;28;20047;-69
2021/09/27 11:26:59;;;;;;;6.30;5.90;;;;;;;28.60;42.37;95562.91;4948946;28;20090;-69
2021/09/27 11:29:28;;;;;;;6.18;5.68;;;;;;;27.77;37.97;95564.97;4950993;28;20024;-68
2021/09/27 11:32:37;;;;;;;6.82;6.32;;;;;;;28.17;39.42;95560.66;4956985;28;20091;-69
2021/09/27 11:35:26;;;;;;;6.60;6.10;;;;;;;27.47;38.20;95564.41;4974337;28;20524;-68
2021/09/27 11:37:51;;;;;;;6.90;6.30;;;;;;;28.29;39.86;95565.59;4981980;28;20176;-69
2021/09/27 11:40:39;;;;;;;6.78;6.38;;;;;;;26.87;40.15;95567.53;4971713;28;20219;-68
2021/09/27 11:43:34;;;;;;;6.38;5.93;;;;;;;25.77;40.88;95566.72;4971690;28;20046;-68
2021/09/27 11:46:07;;;;;;;6.68;6.18;;;;;;;25.33;42.65;95576.06;4987792;28;20583;-68
2021/09/27 11:48:40;;;;;;;6.95;6.45;;;;;;;26.81;41.22;95555.47;4971039;28;20619;-68
2021/09/27 11:51:05;;;;;;;6.82;6.22;;;;;;;26.69;40.05;95562.19;4971296;28;20130;-68
2021/09/27 11:54:09;;;;;;;7.38;6.68;;;;;;;27.81;44.20;95558.28;4986000;28;20053;-68
2021/09/27 11:56:39;;;;;;;6.88;6.38;;;;;;;27.83;39.46;95541.47;4975601;28;20097;-71
2021/09/27 11:59:15;;;;;;;7.45;6.75;;;;;;;26.79;40.69;95555.13;4972970;28;20389;-70
2021/09/27 12:01:48;;;;;;;6.35;5.95;;;;;;;26.21;40.99;95562.75;4971123;28;20043;-70
2021/09/27 12:04:46;;;;;;;7.05;6.45;;;;;;;26.05;41.61;95556.94;4970695;28;20875;-70